sensor_id;sensor_type;location;lat;lon;timestamp;temperature;humidity
15394;DHT22;7795;47.986;11.868;2023-04-06T00:01:10;3.00;59.60
15394;DHT22;7795;47.986;11.868;2023-04-06T00:03:37;3.00;59.50
15394;DHT22;7795;47.986;11.868;2023-04-06T00:06:03;3.00;59.60
15394;DHT22;7795;47.986;11.868;2023-04-06T00:08:29;3.00;59.50
15394;DHT22;7795;47.986;11.868;2023-04-06T00:10:55;2.90;59.50
15394;DHT22;7795;47.986;11.868;2023-04-06T00:13:21;2.90;59.50
15394;DHT22;7795;47.986;11.868;2023-04-06T00:15:47;2.90;59.60
15394;DHT22;7795;47.986;11.868;2023-04-06T00:18:13;2.80;59.60
15394;DHT22;7795;47.986;11.868;2023-04-06T00:20:40;2.80;59.80
15394;DHT22;7795;47.986;11.868;2023-04-06T00:23:06;2.80;59.90
15394;DHT22;7795;47.986;11.868;2023-04-06T00:25:32;2.70;59.80
15394;DHT22;7795;47.986;11.868;2023-04-06T00:27:57;2.70;59.90
15394;DHT22;7795;47.986;11.868;2023-04-06T00:30:23;2.70;60.70
15394;DHT22;7795;47.986;11.868;2023-04-06T00:32:49;2.70;60.10
15394;DHT22;7795;47.986;11.868;2023-04-06T00:35:15;2.60;60.20
15394;DHT22;7795;47.986;11.868;2023-04-06T00:37:42;2.60;60.30
15394;DHT22;7795;47.986;11.868;2023-04-06T00:40:09;2.60;60.40
15394;DHT22;7795;47.986;11.868;2023-04-06T00:42:36;2.60;60.30
15394;DHT22;7795;47.986;11.868;2023-04-06T00:45:02;2.60;60.40
15394;DHT22;7795;47.986;11.868;2023-04-06T00:47:28;2.60;60.50
15394;DHT22;7795;47.986;11.868;2023-04-06T00:49:54;2.60;60.60
15394;DHT22;7795;47.986;11.868;2023-04-06T00:52:21;2.60;60.40
15394;DHT22;7795;47.986;11.868;2023-04-06T00:54:48;2.50;60.40
15394;DHT22;7795;47.986;11.868;2023-04-06T00:57:14;2.50;60.50
15394;DHT22;7795;47.986;11.868;2023-04-06T00:59:42;2.50;60.60
15394;DHT22;7795;47.986;11.868;2023-04-06T01:02:08;2.50;60.60
15394;DHT22;7795;47.986;11.868;2023-04-06T01:04:34;2.40;60.50
15394;DHT22;7795;47.986;11.868;2023-04-06T01:07:01;2.40;60.50
15394;DHT22;7795;47.986;11.868;2023-04-06T01:09:27;2.30;60.50
15394;DHT22;7795;47.986;11.868;2023-04-06T01:11:55;2.30;60.60
15394;DHT22;7795;47.986;11.868;2023-04-06T01:14:21;2.30;60.80
15394;DHT22;7795;47.986;11.868;2023-04-06T01:16:48;2.30;60.80
15394;DHT22;7795;47.986;11.868;2023-04-06T01:19:13;2.20;60.80
15394;DHT22;7795;47.986;11.868;2023-04-06T01:21:40;2.20;60.80
15394;DHT22;7795;47.986;11.868;2023-04-06T01:24:08;2.20;61.00
15394;DHT22;7795;47.986;11.868;2023-04-06T01:26:35;2.20;61.10
15394;DHT22;7795;47.986;11.868;2023-04-06T01:29:01;2.10;61.10
15394;DHT22;7795;47.986;11.868;2023-04-06T01:31:27;2.10;61.10
15394;DHT22;7795;47.986;11.868;2023-04-06T01:33:53;2.10;61.20
15394;DHT22;7795;47.986;11.868;2023-04-06T01:36:20;2.00;61.20
15394;DHT22;7795;47.986;11.868;2023-04-06T01:38:46;2.00;61.20
15394;DHT22;7795;47.986;11.868;2023-04-06T01:41:13;2.00;61.30
15394;DHT22;7795;47.986;11.868;2023-04-06T01:43:39;1.90;61.40
15394;DHT22;7795;47.986;11.868;2023-04-06T01:46:05;1.90;61.40
15394;DHT22;7795;47.986;11.868;2023-04-06T01:48:31;1.90;61.40
15394;DHT22;7795;47.986;11.868;2023-04-06T01:50:57;1.80;61.50
15394;DHT22;7795;47.986;11.868;2023-04-06T01:53:23;1.80;61.60
15394;DHT22;7795;47.986;11.868;2023-04-06T01:55:48;1.80;62.40
15394;DHT22;7795;47.986;11.868;2023-04-06T01:58:16;1.70;61.70
15394;DHT22;7795;47.986;11.868;2023-04-06T02:00:42;1.80;62.60
15394;DHT22;7795;47.986;11.868;2023-04-06T02:03:07;1.70;61.80
15394;DHT22;7795;47.986;11.868;2023-04-06T02:05:33;1.70;62.00
15394;DHT22;7795;47.986;11.868;2023-04-06T02:08:03;1.70;62.00
15394;DHT22;7795;47.986;11.868;2023-04-06T02:10:29;1.70;62.00
15394;DHT22;7795;47.986;11.868;2023-04-06T02:12:55;1.70;62.10
15394;DHT22;7795;47.986;11.868;2023-04-06T02:15:22;1.70;62.10
15394;DHT22;7795;47.986;11.868;2023-04-06T02:17:48;1.70;62.30
15394;DHT22;7795;47.986;11.868;2023-04-06T02:20:14;1.70;62.20
15394;DHT22;7795;47.986;11.868;2023-04-06T02:22:40;1.70;62.20
15394;DHT22;7795;47.986;11.868;2023-04-06T02:25:06;1.70;62.30
15394;DHT22;7795;47.986;11.868;2023-04-06T02:27:33;1.70;62.40
15394;DHT22;7795;47.986;11.868;2023-04-06T02:29:59;1.70;62.40
15394;DHT22;7795;47.986;11.868;2023-04-06T02:32:26;1.70;62.30
15394;DHT22;7795;47.986;11.868;2023-04-06T02:34:52;1.70;62.40
15394;DHT22;7795;47.986;11.868;2023-04-06T02:37:17;1.60;62.30
15394;DHT22;7795;47.986;11.868;2023-04-06T02:39:43;1.60;62.30
15394;DHT22;7795;47.986;11.868;2023-04-06T02:42:09;1.60;62.30
15394;DHT22;7795;47.986;11.868;2023-04-06T02:44:35;1.60;62.30
15394;DHT22;7795;47.986;11.868;2023-04-06T02:47:01;1.60;62.30
15394;DHT22;7795;47.986;11.868;2023-04-06T02:49:28;1.60;62.40
15394;DHT22;7795;47.986;11.868;2023-04-06T02:51:53;1.60;62.50
15394;DHT22;7795;47.986;11.868;2023-04-06T02:54:19;1.60;62.40
15394;DHT22;7795;47.986;11.868;2023-04-06T02:56:45;1.50;62.40
15394;DHT22;7795;47.986;11.868;2023-04-06T02:59:11;1.50;62.40
15394;DHT22;7795;47.986;11.868;2023-04-06T03:01:37;1.50;62.40
15394;DHT22;7795;47.986;11.868;2023-04-06T03:04:03;1.50;62.40
15394;DHT22;7795;47.986;11.868;2023-04-06T03:06:30;1.40;62.40
15394;DHT22;7795;47.986;11.868;2023-04-06T03:08:56;1.40;63.30
15394;DHT22;7795;47.986;11.868;2023-04-06T03:11:21;1.40;62.50
15394;DHT22;7795;47.986;11.868;2023-04-06T03:13:47;1.40;62.50
15394;DHT22;7795;47.986;11.868;2023-04-06T03:16:13;1.30;62.50
15394;DHT22;7795;47.986;11.868;2023-04-06T03:18:39;1.30;62.60
15394;DHT22;7795;47.986;11.868;2023-04-06T03:21:05;1.30;62.70
15394;DHT22;7795;47.986;11.868;2023-04-06T03:23:32;1.20;62.70
15394;DHT22;7795;47.986;11.868;2023-04-06T03:25:58;1.20;62.80
15394;DHT22;7795;47.986;11.868;2023-04-06T03:28:23;1.20;62.80
15394;DHT22;7795;47.986;11.868;2023-04-06T03:30:49;1.20;62.90
15394;DHT22;7795;47.986;11.868;2023-04-06T03:33:15;1.10;63.70
15394;DHT22;7795;47.986;11.868;2023-04-06T03:35:41;1.10;63.80
15394;DHT22;7795;47.986;11.868;2023-04-06T03:38:07;1.10;63.10
15394;DHT22;7795;47.986;11.868;2023-04-06T03:40:34;1.10;63.20
15394;DHT22;7795;47.986;11.868;2023-04-06T03:43:00;1.10;63.30
15394;DHT22;7795;47.986;11.868;2023-04-06T03:45:26;1.10;63.40
15394;DHT22;7795;47.986;11.868;2023-04-06T03:47:52;1.10;63.40
15394;DHT22;7795;47.986;11.868;2023-04-06T03:50:17;1.00;63.40
15394;DHT22;7795;47.986;11.868;2023-04-06T03:52:43;1.00;63.40
15394;DHT22;7795;47.986;11.868;2023-04-06T03:55:09;1.00;63.40
15394;DHT22;7795;47.986;11.868;2023-04-06T03:57:36;1.00;63.50
15394;DHT22;7795;47.986;11.868;2023-04-06T04:00:03;1.00;63.50
15394;DHT22;7795;47.986;11.868;2023-04-06T04:02:29;0.90;63.40
15394;DHT22;7795;47.986;11.868;2023-04-06T04:04:55;0.90;63.40
15394;DHT22;7795;47.986;11.868;2023-04-06T04:07:21;0.90;63.40
15394;DHT22;7795;47.986;11.868;2023-04-06T04:09:47;0.90;63.50
15394;DHT22;7795;47.986;11.868;2023-04-06T04:12:13;0.90;63.60
15394;DHT22;7795;47.986;11.868;2023-04-06T04:14:41;0.80;63.60
15394;DHT22;7795;47.986;11.868;2023-04-06T04:17:07;0.80;63.70
15394;DHT22;7795;47.986;11.868;2023-04-06T04:19:33;0.80;63.80
15394;DHT22;7795;47.986;11.868;2023-04-06T04:21:58;0.80;63.90
15394;DHT22;7795;47.986;11.868;2023-04-06T04:24:24;0.80;64.00
15394;DHT22;7795;47.986;11.868;2023-04-06T04:26:50;0.80;64.10
15394;DHT22;7795;47.986;11.868;2023-04-06T04:29:16;0.80;64.20
15394;DHT22;7795;47.986;11.868;2023-04-06T04:31:43;0.80;64.20
15394;DHT22;7795;47.986;11.868;2023-04-06T04:34:09;0.80;64.30
15394;DHT22;7795;47.986;11.868;2023-04-06T04:36:35;0.80;64.30
15394;DHT22;7795;47.986;11.868;2023-04-06T04:39:01;0.80;64.30
15394;DHT22;7795;47.986;11.868;2023-04-06T04:41:27;0.80;64.30
15394;DHT22;7795;47.986;11.868;2023-04-06T04:43:52;0.80;64.30
15394;DHT22;7795;47.986;11.868;2023-04-06T04:46:18;0.80;64.30
15394;DHT22;7795;47.986;11.868;2023-04-06T04:48:45;0.80;64.40
15394;DHT22;7795;47.986;11.868;2023-04-06T04:51:11;0.70;64.30
15394;DHT22;7795;47.986;11.868;2023-04-06T04:53:37;0.70;64.30
15394;DHT22;7795;47.986;11.868;2023-04-06T04:56:03;0.70;64.30
15394;DHT22;7795;47.986;11.868;2023-04-06T04:58:29;0.70;64.30
15394;DHT22;7795;47.986;11.868;2023-04-06T05:00:55;0.70;64.40
15394;DHT22;7795;47.986;11.868;2023-04-06T05:03:23;0.70;64.40
15394;DHT22;7795;47.986;11.868;2023-04-06T05:05:51;0.70;64.60
15394;DHT22;7795;47.986;11.868;2023-04-06T05:08:17;0.70;64.60
15394;DHT22;7795;47.986;11.868;2023-04-06T05:10:43;0.70;64.40
15394;DHT22;7795;47.986;11.868;2023-04-06T05:13:10;0.70;64.50
15394;DHT22;7795;47.986;11.868;2023-04-06T05:15:36;0.70;64.50
15394;DHT22;7795;47.986;11.868;2023-04-06T05:18:03;0.70;64.60
15394;DHT22;7795;47.986;11.868;2023-04-06T05:20:29;0.70;64.70
15394;DHT22;7795;47.986;11.868;2023-04-06T05:22:56;0.70;64.70
15394;DHT22;7795;47.986;11.868;2023-04-06T05:25:22;0.70;64.80
15394;DHT22;7795;47.986;11.868;2023-04-06T05:27:48;0.70;65.60
15394;DHT22;7795;47.986;11.868;2023-04-06T05:30:14;0.70;65.00
15394;DHT22;7795;47.986;11.868;2023-04-06T05:32:41;0.70;65.10
15394;DHT22;7795;47.986;11.868;2023-04-06T05:35:08;0.80;65.30
15394;DHT22;7795;47.986;11.868;2023-04-06T05:37:34;0.80;65.40
15394;DHT22;7795;47.986;11.868;2023-04-06T05:40:02;0.80;65.40
15394;DHT22;7795;47.986;11.868;2023-04-06T05:42:28;0.90;65.70
15394;DHT22;7795;47.986;11.868;2023-04-06T05:45:02;1.00;65.70
15394;DHT22;7795;47.986;11.868;2023-04-06T05:47:28;1.00;65.60
15394;DHT22;7795;47.986;11.868;2023-04-06T05:49:53;1.10;65.80
15394;DHT22;7795;47.986;11.868;2023-04-06T05:52:19;1.20;65.90
15394;DHT22;7795;47.986;11.868;2023-04-06T05:54:45;1.30;66.00
15394;DHT22;7795;47.986;11.868;2023-04-06T05:57:12;1.40;66.10
15394;DHT22;7795;47.986;11.868;2023-04-06T05:59:41;1.40;66.00
15394;DHT22;7795;47.986;11.868;2023-04-06T06:02:07;1.60;66.10
15394;DHT22;7795;47.986;11.868;2023-04-06T06:04:33;1.60;65.80
15394;DHT22;7795;47.986;11.868;2023-04-06T06:06:59;1.80;66.00
15394;DHT22;7795;47.986;11.868;2023-04-06T06:09:25;1.90;66.00
15394;DHT22;7795;47.986;11.868;2023-04-06T06:11:51;2.00;65.90
15394;DHT22;7795;47.986;11.868;2023-04-06T06:14:19;2.20;66.10
15394;DHT22;7795;47.986;11.868;2023-04-06T06:16:45;2.30;66.20
15394;DHT22;7795;47.986;11.868;2023-04-06T06:19:11;2.40;66.00
15394;DHT22;7795;47.986;11.868;2023-04-06T06:21:37;2.60;65.90
15394;DHT22;7795;47.986;11.868;2023-04-06T06:24:03;2.70;65.70
15394;DHT22;7795;47.986;11.868;2023-04-06T06:26:29;2.80;65.40
15394;DHT22;7795;47.986;11.868;2023-04-06T06:28:55;2.90;65.20
15394;DHT22;7795;47.986;11.868;2023-04-06T06:31:22;3.00;65.10
15394;DHT22;7795;47.986;11.868;2023-04-06T06:33:48;3.10;66.00
15394;DHT22;7795;47.986;11.868;2023-04-06T06:36:18;3.20;65.20
15394;DHT22;7795;47.986;11.868;2023-04-06T06:38:44;3.30;65.30
15394;DHT22;7795;47.986;11.868;2023-04-06T06:41:10;3.40;65.20
15394;DHT22;7795;47.986;11.868;2023-04-06T06:43:36;3.50;65.10
15394;DHT22;7795;47.986;11.868;2023-04-06T06:46:02;3.60;64.90
15394;DHT22;7795;47.986;11.868;2023-04-06T06:48:29;3.70;64.70
15394;DHT22;7795;47.986;11.868;2023-04-06T06:50:56;3.80;64.60
15394;DHT22;7795;47.986;11.868;2023-04-06T06:53:23;3.90;64.50
15394;DHT22;7795;47.986;11.868;2023-04-06T06:55:49;4.00;64.50
15394;DHT22;7795;47.986;11.868;2023-04-06T06:58:17;4.00;64.40
15394;DHT22;7795;47.986;11.868;2023-04-06T07:00:43;4.10;64.40
15394;DHT22;7795;47.986;11.868;2023-04-06T07:03:09;4.20;64.50
15394;DHT22;7795;47.986;11.868;2023-04-06T07:05:36;4.30;64.50
15394;DHT22;7795;47.986;11.868;2023-04-06T07:08:03;4.30;64.50
15394;DHT22;7795;47.986;11.868;2023-04-06T07:10:28;4.40;64.40
15394;DHT22;7795;47.986;11.868;2023-04-06T07:12:55;4.50;64.60
15394;DHT22;7795;47.986;11.868;2023-04-06T07:15:21;4.60;64.50
15394;DHT22;7795;47.986;11.868;2023-04-06T07:17:46;4.70;64.50
15394;DHT22;7795;47.986;11.868;2023-04-06T07:20:13;4.80;64.40
15394;DHT22;7795;47.986;11.868;2023-04-06T07:22:42;4.90;64.40
15394;DHT22;7795;47.986;11.868;2023-04-06T07:25:09;5.00;64.40
15394;DHT22;7795;47.986;11.868;2023-04-06T07:27:34;5.20;64.40
15394;DHT22;7795;47.986;11.868;2023-04-06T07:30:00;5.20;64.30
15394;DHT22;7795;47.986;11.868;2023-04-06T07:32:26;5.40;64.30
15394;DHT22;7795;47.986;11.868;2023-04-06T07:34:53;5.50;64.10
15394;DHT22;7795;47.986;11.868;2023-04-06T07:37:19;5.60;63.90
15394;DHT22;7795;47.986;11.868;2023-04-06T07:39:47;5.70;63.70
15394;DHT22;7795;47.986;11.868;2023-04-06T07:42:13;5.80;63.50
15394;DHT22;7795;47.986;11.868;2023-04-06T07:44:39;5.90;63.40
15394;DHT22;7795;47.986;11.868;2023-04-06T07:47:05;6.00;63.30
15394;DHT22;7795;47.986;11.868;2023-04-06T07:49:31;6.10;63.30
15394;DHT22;7795;47.986;11.868;2023-04-06T07:51:58;6.20;63.30
15394;DHT22;7795;47.986;11.868;2023-04-06T07:54:24;6.30;63.20
15394;DHT22;7795;47.986;11.868;2023-04-06T07:56:51;6.40;63.20
15394;DHT22;7795;47.986;11.868;2023-04-06T07:59:17;6.50;63.10
15394;DHT22;7795;47.986;11.868;2023-04-06T08:01:43;6.60;63.80
15394;DHT22;7795;47.986;11.868;2023-04-06T08:04:09;6.70;62.90
15394;DHT22;7795;47.986;11.868;2023-04-06T08:06:35;6.80;62.90
15394;DHT22;7795;47.986;11.868;2023-04-06T08:09:02;6.90;62.70
15394;DHT22;7795;47.986;11.868;2023-04-06T08:11:28;7.10;62.50
15394;DHT22;7795;47.986;11.868;2023-04-06T08:13:56;7.20;62.30
15394;DHT22;7795;47.986;11.868;2023-04-06T08:16:22;7.30;62.00
15394;DHT22;7795;47.986;11.868;2023-04-06T08:18:48;7.30;61.90
15394;DHT22;7795;47.986;11.868;2023-04-06T08:21:14;7.40;61.70
15394;DHT22;7795;47.986;11.868;2023-04-06T08:23:40;7.50;61.50
15394;DHT22;7795;47.986;11.868;2023-04-06T08:26:06;7.60;61.50
15394;DHT22;7795;47.986;11.868;2023-04-06T08:28:32;7.70;61.30
15394;DHT22;7795;47.986;11.868;2023-04-06T08:31:04;7.80;61.00
15394;DHT22;7795;47.986;11.868;2023-04-06T08:33:31;7.90;60.50
15394;DHT22;7795;47.986;11.868;2023-04-06T08:35:57;8.00;60.40
15394;DHT22;7795;47.986;11.868;2023-04-06T08:38:23;8.10;60.20
15394;DHT22;7795;47.986;11.868;2023-04-06T08:40:49;8.10;60.20
15394;DHT22;7795;47.986;11.868;2023-04-06T08:43:17;8.20;60.10
15394;DHT22;7795;47.986;11.868;2023-04-06T08:45:48;8.30;59.90
15394;DHT22;7795;47.986;11.868;2023-04-06T08:48:16;8.40;59.80
15394;DHT22;7795;47.986;11.868;2023-04-06T08:50:43;8.40;59.70
15394;DHT22;7795;47.986;11.868;2023-04-06T08:53:11;8.60;59.80
15394;DHT22;7795;47.986;11.868;2023-04-06T08:55:37;8.70;59.50
15394;DHT22;7795;47.986;11.868;2023-04-06T08:58:04;8.80;59.40
15394;DHT22;7795;47.986;11.868;2023-04-06T09:00:32;8.80;59.20
15394;DHT22;7795;47.986;11.868;2023-04-06T09:02:58;8.90;58.90
15394;DHT22;7795;47.986;11.868;2023-04-06T09:05:26;9.00;58.70
15394;DHT22;7795;47.986;11.868;2023-04-06T09:07:52;9.10;58.40
15394;DHT22;7795;47.986;11.868;2023-04-06T09:10:18;9.20;58.30
15394;DHT22;7795;47.986;11.868;2023-04-06T09:12:44;9.30;58.10
15394;DHT22;7795;47.986;11.868;2023-04-06T09:15:18;9.40;57.90
15394;DHT22;7795;47.986;11.868;2023-04-06T09:17:44;9.50;57.20
15394;DHT22;7795;47.986;11.868;2023-04-06T09:20:11;9.50;57.30
15394;DHT22;7795;47.986;11.868;2023-04-06T09:22:39;9.60;56.90
15394;DHT22;7795;47.986;11.868;2023-04-06T09:25:07;9.70;56.50
15394;DHT22;7795;47.986;11.868;2023-04-06T09:27:35;9.70;56.20
15394;DHT22;7795;47.986;11.868;2023-04-06T09:30:06;9.80;55.90
15394;DHT22;7795;47.986;11.868;2023-04-06T09:32:33;9.90;55.80
15394;DHT22;7795;47.986;11.868;2023-04-06T09:35:09;10.00;55.70
15394;DHT22;7795;47.986;11.868;2023-04-06T09:37:35;10.00;55.60
15394;DHT22;7795;47.986;11.868;2023-04-06T09:40:06;10.10;55.40
15394;DHT22;7795;47.986;11.868;2023-04-06T09:42:33;10.20;55.10
15394;DHT22;7795;47.986;11.868;2023-04-06T09:44:59;10.20;55.40
15394;DHT22;7795;47.986;11.868;2023-04-06T09:47:25;10.30;55.10
15394;DHT22;7795;47.986;11.868;2023-04-06T09:49:55;10.40;55.10
15394;DHT22;7795;47.986;11.868;2023-04-06T09:52:24;10.40;54.70
15394;DHT22;7795;47.986;11.868;2023-04-06T09:54:52;10.50;54.80
15394;DHT22;7795;47.986;11.868;2023-04-06T09:57:25;10.50;54.40
15394;DHT22;7795;47.986;11.868;2023-04-06T10:00:00;10.60;54.10
15394;DHT22;7795;47.986;11.868;2023-04-06T10:02:39;10.60;54.10
15394;DHT22;7795;47.986;11.868;2023-04-06T10:05:10;10.60;54.10
15394;DHT22;7795;47.986;11.868;2023-04-06T10:07:39;10.70;54.10
15394;DHT22;7795;47.986;11.868;2023-04-06T10:10:06;10.70;54.20
15394;DHT22;7795;47.986;11.868;2023-04-06T10:12:34;10.80;54.00
15394;DHT22;7795;47.986;11.868;2023-04-06T10:15:00;10.80;53.80
15394;DHT22;7795;47.986;11.868;2023-04-06T10:17:26;10.90;53.80
15394;DHT22;7795;47.986;11.868;2023-04-06T10:19:55;11.00;53.60
15394;DHT22;7795;47.986;11.868;2023-04-06T10:22:26;11.00;53.50
15394;DHT22;7795;47.986;11.868;2023-04-06T10:24:55;11.10;53.30
15394;DHT22;7795;47.986;11.868;2023-04-06T10:27:27;11.20;53.50
15394;DHT22;7795;47.986;11.868;2023-04-06T10:30:01;11.30;52.80
15394;DHT22;7795;47.986;11.868;2023-04-06T10:32:32;11.40;52.60
15394;DHT22;7795;47.986;11.868;2023-04-06T10:35:05;11.40;52.50
15394;DHT22;7795;47.986;11.868;2023-04-06T10:37:46;11.50;52.40
15394;DHT22;7795;47.986;11.868;2023-04-06T10:40:18;11.60;52.10
15394;DHT22;7795;47.986;11.868;2023-04-06T10:42:44;11.60;52.20
15394;DHT22;7795;47.986;11.868;2023-04-06T10:45:21;11.70;52.50
15394;DHT22;7795;47.986;11.868;2023-04-06T10:47:47;11.80;51.80
15394;DHT22;7795;47.986;11.868;2023-04-06T10:50:14;11.80;52.20
15394;DHT22;7795;47.986;11.868;2023-04-06T10:52:41;11.90;51.80
15394;DHT22;7795;47.986;11.868;2023-04-06T10:55:08;11.90;51.90
15394;DHT22;7795;47.986;11.868;2023-04-06T10:57:36;12.00;51.80
15394;DHT22;7795;47.986;11.868;2023-04-06T11:00:04;12.10;51.90
15394;DHT22;7795;47.986;11.868;2023-04-06T11:02:31;12.20;51.70
15394;DHT22;7795;47.986;11.868;2023-04-06T11:04:58;12.20;51.30
15394;DHT22;7795;47.986;11.868;2023-04-06T11:07:24;12.30;51.20
15394;DHT22;7795;47.986;11.868;2023-04-06T11:09:50;12.40;51.00
15394;DHT22;7795;47.986;11.868;2023-04-06T11:12:21;12.50;50.90
15394;DHT22;7795;47.986;11.868;2023-04-06T11:14:53;12.50;50.20
15394;DHT22;7795;47.986;11.868;2023-04-06T11:17:25;12.60;50.00
15394;DHT22;7795;47.986;11.868;2023-04-06T11:19:53;12.60;50.00
15394;DHT22;7795;47.986;11.868;2023-04-06T11:22:18;12.70;49.90
15394;DHT22;7795;47.986;11.868;2023-04-06T11:24:44;12.70;50.10
15394;DHT22;7795;47.986;11.868;2023-04-06T11:27:10;12.70;50.50
15394;DHT22;7795;47.986;11.868;2023-04-06T11:29:37;12.80;49.70
15394;DHT22;7795;47.986;11.868;2023-04-06T11:32:05;12.80;49.80
15394;DHT22;7795;47.986;11.868;2023-04-06T11:34:33;12.80;49.60
15394;DHT22;7795;47.986;11.868;2023-04-06T11:37:03;12.90;49.40
15394;DHT22;7795;47.986;11.868;2023-04-06T11:39:37;12.90;49.40
15394;DHT22;7795;47.986;11.868;2023-04-06T11:42:03;13.00;49.10
15394;DHT22;7795;47.986;11.868;2023-04-06T11:44:32;13.10;49.40
15394;DHT22;7795;47.986;11.868;2023-04-06T11:46:58;13.10;49.10
15394;DHT22;7795;47.986;11.868;2023-04-06T11:49:27;13.10;49.10
15394;DHT22;7795;47.986;11.868;2023-04-06T11:51:53;13.20;48.80
15394;DHT22;7795;47.986;11.868;2023-04-06T11:54:29;13.20;48.80
15394;DHT22;7795;47.986;11.868;2023-04-06T11:56:55;13.30;48.00
15394;DHT22;7795;47.986;11.868;2023-04-06T11:59:22;13.40;48.60
15394;DHT22;7795;47.986;11.868;2023-04-06T12:01:48;13.40;48.00
15394;DHT22;7795;47.986;11.868;2023-04-06T12:04:14;13.40;48.00
15394;DHT22;7795;47.986;11.868;2023-04-06T12:06:40;13.50;48.10
15394;DHT22;7795;47.986;11.868;2023-04-06T12:09:06;13.50;47.80
15394;DHT22;7795;47.986;11.868;2023-04-06T12:11:33;13.60;47.80
15394;DHT22;7795;47.986;11.868;2023-04-06T12:13:59;13.70;47.50
15394;DHT22;7795;47.986;11.868;2023-04-06T12:16:27;13.70;47.40
15394;DHT22;7795;47.986;11.868;2023-04-06T12:18:52;13.70;48.00
15394;DHT22;7795;47.986;11.868;2023-04-06T12:21:18;13.80;47.20
15394;DHT22;7795;47.986;11.868;2023-04-06T12:23:44;13.80;47.10
15394;DHT22;7795;47.986;11.868;2023-04-06T12:26:10;13.80;47.00
15394;DHT22;7795;47.986;11.868;2023-04-06T12:28:37;13.90;46.70
15394;DHT22;7795;47.986;11.868;2023-04-06T12:31:03;13.90;46.30
15394;DHT22;7795;47.986;11.868;2023-04-06T12:33:29;14.00;45.60
15394;DHT22;7795;47.986;11.868;2023-04-06T12:35:55;14.00;45.90
15394;DHT22;7795;47.986;11.868;2023-04-06T12:38:21;14.00;45.70
15394;DHT22;7795;47.986;11.868;2023-04-06T12:40:47;14.00;45.80
15394;DHT22;7795;47.986;11.868;2023-04-06T12:43:13;14.10;45.70
15394;DHT22;7795;47.986;11.868;2023-04-06T12:45:40;14.00;45.80
15394;DHT22;7795;47.986;11.868;2023-04-06T12:48:06;14.00;45.50
15394;DHT22;7795;47.986;11.868;2023-04-06T12:50:32;14.00;45.70
15394;DHT22;7795;47.986;11.868;2023-04-06T12:52:58;14.00;45.20
15394;DHT22;7795;47.986;11.868;2023-04-06T12:55:24;13.90;45.40
15394;DHT22;7795;47.986;11.868;2023-04-06T12:57:50;13.90;45.50
15394;DHT22;7795;47.986;11.868;2023-04-06T13:00:17;13.90;45.50
15394;DHT22;7795;47.986;11.868;2023-04-06T13:02:44;13.90;45.40
15394;DHT22;7795;47.986;11.868;2023-04-06T13:05:13;13.90;44.90
15394;DHT22;7795;47.986;11.868;2023-04-06T13:07:40;13.90;45.10
15394;DHT22;7795;47.986;11.868;2023-04-06T13:10:07;13.90;45.10
15394;DHT22;7795;47.986;11.868;2023-04-06T13:12:33;13.90;44.60
15394;DHT22;7795;47.986;11.868;2023-04-06T13:14:58;14.00;44.60
15394;DHT22;7795;47.986;11.868;2023-04-06T13:17:27;14.00;44.00
15394;DHT22;7795;47.986;11.868;2023-04-06T13:19:54;14.10;44.20
15394;DHT22;7795;47.986;11.868;2023-04-06T13:22:20;14.10;44.10
15394;DHT22;7795;47.986;11.868;2023-04-06T13:24:46;14.00;44.30
15394;DHT22;7795;47.986;11.868;2023-04-06T13:27:12;14.10;44.20
15394;DHT22;7795;47.986;11.868;2023-04-06T13:29:38;14.00;43.80
15394;DHT22;7795;47.986;11.868;2023-04-06T13:32:04;14.10;43.90
15394;DHT22;7795;47.986;11.868;2023-04-06T13:34:30;14.10;43.90
15394;DHT22;7795;47.986;11.868;2023-04-06T13:36:57;14.10;43.70
15394;DHT22;7795;47.986;11.868;2023-04-06T13:39:23;14.10;43.20
15394;DHT22;7795;47.986;11.868;2023-04-06T13:41:49;14.10;43.30
15394;DHT22;7795;47.986;11.868;2023-04-06T13:44:15;14.10;43.80
15394;DHT22;7795;47.986;11.868;2023-04-06T13:46:40;14.10;43.70
15394;DHT22;7795;47.986;11.868;2023-04-06T13:49:06;14.20;43.80
15394;DHT22;7795;47.986;11.868;2023-04-06T13:51:32;14.20;43.70
15394;DHT22;7795;47.986;11.868;2023-04-06T13:53:59;14.20;43.80
15394;DHT22;7795;47.986;11.868;2023-04-06T13:56:25;14.30;43.70
15394;DHT22;7795;47.986;11.868;2023-04-06T13:58:53;14.30;43.10
15394;DHT22;7795;47.986;11.868;2023-04-06T14:01:20;14.40;43.10
15394;DHT22;7795;47.986;11.868;2023-04-06T14:03:45;14.40;43.20
15394;DHT22;7795;47.986;11.868;2023-04-06T14:06:13;14.40;43.00
15394;DHT22;7795;47.986;11.868;2023-04-06T14:08:39;14.40;42.80
15394;DHT22;7795;47.986;11.868;2023-04-06T14:11:06;14.40;42.90
15394;DHT22;7795;47.986;11.868;2023-04-06T14:13:33;14.40;42.60
15394;DHT22;7795;47.986;11.868;2023-04-06T14:15:59;14.40;42.80
15394;DHT22;7795;47.986;11.868;2023-04-06T14:18:25;14.40;42.80
15394;DHT22;7795;47.986;11.868;2023-04-06T14:20:54;14.40;42.80
15394;DHT22;7795;47.986;11.868;2023-04-06T14:23:20;14.40;42.70
15394;DHT22;7795;47.986;11.868;2023-04-06T14:25:46;14.40;42.50
15394;DHT22;7795;47.986;11.868;2023-04-06T14:28:14;14.30;42.40
15394;DHT22;7795;47.986;11.868;2023-04-06T14:30:40;14.30;42.10
15394;DHT22;7795;47.986;11.868;2023-04-06T14:33:05;14.40;42.40
15394;DHT22;7795;47.986;11.868;2023-04-06T14:35:32;14.30;42.50
15394;DHT22;7795;47.986;11.868;2023-04-06T14:37:58;14.30;42.40
15394;DHT22;7795;47.986;11.868;2023-04-06T14:40:24;14.30;42.30
15394;DHT22;7795;47.986;11.868;2023-04-06T14:42:50;14.30;42.50
15394;DHT22;7795;47.986;11.868;2023-04-06T14:45:22;14.30;42.40
15394;DHT22;7795;47.986;11.868;2023-04-06T14:47:48;14.30;42.30
15394;DHT22;7795;47.986;11.868;2023-04-06T14:50:14;14.30;42.20
15394;DHT22;7795;47.986;11.868;2023-04-06T14:52:39;14.30;42.20
15394;DHT22;7795;47.986;11.868;2023-04-06T14:55:06;14.30;41.60
15394;DHT22;7795;47.986;11.868;2023-04-06T14:57:32;14.40;41.90
15394;DHT22;7795;47.986;11.868;2023-04-06T14:59:58;14.40;41.70
15394;DHT22;7795;47.986;11.868;2023-04-06T15:02:25;14.30;41.70
15394;DHT22;7795;47.986;11.868;2023-04-06T15:04:51;14.40;41.70
15394;DHT22;7795;47.986;11.868;2023-04-06T15:07:16;14.40;41.70
15394;DHT22;7795;47.986;11.868;2023-04-06T15:09:42;14.40;41.70
15394;DHT22;7795;47.986;11.868;2023-04-06T15:12:08;14.40;41.70
15394;DHT22;7795;47.986;11.868;2023-04-06T15:14:33;14.50;41.70
15394;DHT22;7795;47.986;11.868;2023-04-06T15:16:59;14.50;41.80
15394;DHT22;7795;47.986;11.868;2023-04-06T15:19:26;14.50;41.70
15394;DHT22;7795;47.986;11.868;2023-04-06T15:21:52;14.50;41.90
15394;DHT22;7795;47.986;11.868;2023-04-06T15:24:18;14.50;41.80
15394;DHT22;7795;47.986;11.868;2023-04-06T15:26:44;14.50;41.80
15394;DHT22;7795;47.986;11.868;2023-04-06T15:29:11;14.50;41.50
15394;DHT22;7795;47.986;11.868;2023-04-06T15:31:36;14.50;41.50
15394;DHT22;7795;47.986;11.868;2023-04-06T15:34:03;14.50;41.60
15394;DHT22;7795;47.986;11.868;2023-04-06T15:36:30;14.50;41.70